04:26
Airports
History
Links
Donate
Help keep this website running!
PayPal
Bitcoin
This page is community maintained. The information is intended for PC simulator navigation or reference.
Always use approved charts for navigation.
SSXD
Sarandi
Sarandi (SSXD)
Sarandi, Rio Grande do Sul, Brazil (99560)
(C)
Lat/Lng:27° 58' 51" S / 52° 51' 48.01" W
-27.980833 / -52.863335
Elevation:2031'ft / 619mMSL
ID / ICAO:SSXD
Runways:1
Longest:14-32
Concrete 1,207m / 3,960ft
Controlled:Yes
Nearby Weather03:00 GMT 2017-09-22
Nearby weather at SBPF, Lauro Kurtz located 37.4 nautical miles from SSXD
Altimeter: 30.06
Visibility: 6.2 statute miles
Wind: 10 knots (from 080°)
Temp: 22°c / 72°f
Humidity: 83.1%

METAR: SBPF 220300Z 08010KT CAVOK 22/19 Q1018

(Powered by phpweather)
Runway 14 / 32
Dimensions:1207 x 17.1m 3960' x 56'ft
Surface:Concrete
Edge Lights:Medium intensity
Runway 14 [A]Runway 32 [B]
Heading:125°TH 305°TH
Lat:
Lng:
27° 58' 39.58"S
52° 52' 5.81"W
27° 59' 2.42"S
52° 51' 30.2"W
ALS:MALSMALS
User Notes and Comments
27° 58' 51" S / 52° 51' 48.01" W
Distance To
Airport ID:
Nearby Airports
4 Fazenda do Cedro 22.1 NM
SICY WSW 246°
(C) Carazinho 23.8 NM
SSKZ S 173°
4 Agropecuaria Monte Alverne 27.5 NM
SSYQ S 182°
(C) Aeroclub 28.2 NM
SSAQ SE 131°
(C) Palmeira Das Missoes 29.0 NM
SSPL W 280°
4 Fazenda Coxilha 34.6 NM
SSCX ESE 105°
(U) Lauro Kurtz 37.4 NM
SBPF ( WX ) ESE 119°
VFR Chart
Flight Planning at SkyVector.com